sensor_id;sensor_type;location;lat;lon;timestamp;P1;durP1;ratioP1;P2;durP2;ratioP2
27491;SDS011;14927;51.210;6.838;2023-05-10T00:01:16;7.25;;;6.10;;
27491;SDS011;14927;51.210;6.838;2023-05-10T00:04:01;7.85;;;7.05;;
27491;SDS011;14927;51.210;6.838;2023-05-10T00:06:46;7.78;;;7.05;;
27491;SDS011;14927;51.210;6.838;2023-05-10T00:09:31;8.75;;;7.93;;
27491;SDS011;14927;51.210;6.838;2023-05-10T00:12:15;8.93;;;8.02;;
27491;SDS011;14927;51.210;6.838;2023-05-10T00:15:00;8.70;;;7.35;;
27491;SDS011;14927;51.210;6.838;2023-05-10T00:17:46;8.52;;;7.65;;
27491;SDS011;14927;51.210;6.838;2023-05-10T00:20:30;9.15;;;7.85;;
27491;SDS011;14927;51.210;6.838;2023-05-10T00:23:15;8.80;;;7.90;;
27491;SDS011;14927;51.210;6.838;2023-05-10T00:26:00;9.40;;;8.30;;
27491;SDS011;14927;51.210;6.838;2023-05-10T00:28:44;9.07;;;8.02;;
27491;SDS011;14927;51.210;6.838;2023-05-10T00:31:29;9.63;;;8.73;;
27491;SDS011;14927;51.210;6.838;2023-05-10T00:34:14;9.65;;;8.75;;
27491;SDS011;14927;51.210;6.838;2023-05-10T00:36:58;10.45;;;9.32;;
27491;SDS011;14927;51.210;6.838;2023-05-10T00:39:43;10.40;;;8.48;;
27491;SDS011;14927;51.210;6.838;2023-05-10T00:42:27;9.90;;;8.30;;
27491;SDS011;14927;51.210;6.838;2023-05-10T00:45:12;11.07;;;8.35;;
27491;SDS011;14927;51.210;6.838;2023-05-10T00:47:57;10.27;;;9.15;;
27491;SDS011;14927;51.210;6.838;2023-05-10T00:50:43;9.38;;;8.38;;
27491;SDS011;14927;51.210;6.838;2023-05-10T00:53:28;9.88;;;8.88;;
27491;SDS011;14927;51.210;6.838;2023-05-10T00:56:16;9.38;;;8.38;;
27491;SDS011;14927;51.210;6.838;2023-05-10T00:59:00;10.00;;;8.95;;
27491;SDS011;14927;51.210;6.838;2023-05-10T01:01:45;10.30;;;9.15;;
27491;SDS011;14927;51.210;6.838;2023-05-10T01:04:30;8.68;;;7.78;;
27491;SDS011;14927;51.210;6.838;2023-05-10T01:07:15;8.40;;;6.80;;
27491;SDS011;14927;51.210;6.838;2023-05-10T01:10:00;6.63;;;5.88;;
27491;SDS011;14927;51.210;6.838;2023-05-10T01:12:46;6.82;;;5.25;;
27491;SDS011;14927;51.210;6.838;2023-05-10T01:15:31;5.47;;;4.80;;
27491;SDS011;14927;51.210;6.838;2023-05-10T01:18:16;6.68;;;4.53;;
27491;SDS011;14927;51.210;6.838;2023-05-10T01:33:52;6.00;;;4.95;;
27491;SDS011;14927;51.210;6.838;2023-05-10T01:37:01;5.82;;;4.72;;
27491;SDS011;14927;51.210;6.838;2023-05-10T01:43:08;6.10;;;5.43;;
27491;SDS011;14927;51.210;6.838;2023-05-10T01:46:03;6.03;;;5.07;;
27491;SDS011;14927;51.210;6.838;2023-05-10T01:48:57;6.75;;;4.80;;
27491;SDS011;14927;51.210;6.838;2023-05-10T01:51:45;6.40;;;5.22;;
27491;SDS011;14927;51.210;6.838;2023-05-10T01:54:35;5.70;;;5.10;;
27491;SDS011;14927;51.210;6.838;2023-05-10T01:57:37;5.82;;;5.30;;
27491;SDS011;14927;51.210;6.838;2023-05-10T02:00:24;9.10;;;6.13;;
27491;SDS011;14927;51.210;6.838;2023-05-10T02:03:11;5.60;;;4.72;;
27491;SDS011;14927;51.210;6.838;2023-05-10T02:05:57;9.60;;;5.55;;
27491;SDS011;14927;51.210;6.838;2023-05-10T02:08:42;7.63;;;5.57;;
27491;SDS011;14927;51.210;6.838;2023-05-10T02:11:30;5.97;;;5.38;;
27491;SDS011;14927;51.210;6.838;2023-05-10T02:14:16;6.50;;;5.50;;
27491;SDS011;14927;51.210;6.838;2023-05-10T02:17:04;7.53;;;6.70;;
27491;SDS011;14927;51.210;6.838;2023-05-10T02:19:50;7.82;;;6.55;;
27491;SDS011;14927;51.210;6.838;2023-05-10T02:22:36;6.72;;;6.05;;
27491;SDS011;14927;51.210;6.838;2023-05-10T02:25:23;7.13;;;6.30;;
27491;SDS011;14927;51.210;6.838;2023-05-10T02:28:09;7.57;;;6.20;;
27491;SDS011;14927;51.210;6.838;2023-05-10T02:30:55;6.68;;;6.00;;
27491;SDS011;14927;51.210;6.838;2023-05-10T02:33:40;5.53;;;4.82;;
27491;SDS011;14927;51.210;6.838;2023-05-10T02:36:25;5.95;;;4.82;;
27491;SDS011;14927;51.210;6.838;2023-05-10T02:39:11;5.07;;;4.47;;
27491;SDS011;14927;51.210;6.838;2023-05-10T02:41:58;7.72;;;4.95;;
27491;SDS011;14927;51.210;6.838;2023-05-10T02:44:45;7.43;;;5.60;;
27491;SDS011;14927;51.210;6.838;2023-05-10T02:47:33;5.25;;;4.60;;
27491;SDS011;14927;51.210;6.838;2023-05-10T02:50:18;6.85;;;5.47;;
27491;SDS011;14927;51.210;6.838;2023-05-10T02:53:08;5.90;;;5.28;;
27491;SDS011;14927;51.210;6.838;2023-05-10T02:55:57;6.80;;;6.10;;
27491;SDS011;14927;51.210;6.838;2023-05-10T02:58:47;9.68;;;6.20;;
27491;SDS011;14927;51.210;6.838;2023-05-10T03:01:32;7.70;;;5.85;;
27491;SDS011;14927;51.210;6.838;2023-05-10T03:04:16;10.23;;;6.20;;
27491;SDS011;14927;51.210;6.838;2023-05-10T03:07:01;7.13;;;6.05;;
27491;SDS011;14927;51.210;6.838;2023-05-10T03:09:47;9.60;;;7.18;;
27491;SDS011;14927;51.210;6.838;2023-05-10T03:15:55;8.00;;;7.03;;
27491;SDS011;14927;51.210;6.838;2023-05-10T03:21:57;9.95;;;7.03;;
27491;SDS011;14927;51.210;6.838;2023-05-10T03:24:48;7.68;;;6.82;;
27491;SDS011;14927;51.210;6.838;2023-05-10T03:27:33;7.28;;;6.38;;
27491;SDS011;14927;51.210;6.838;2023-05-10T03:30:19;9.65;;;6.30;;
27491;SDS011;14927;51.210;6.838;2023-05-10T03:33:07;8.23;;;6.65;;
27491;SDS011;14927;51.210;6.838;2023-05-10T03:35:52;7.93;;;6.55;;
27491;SDS011;14927;51.210;6.838;2023-05-10T03:38:36;9.82;;;6.40;;
27491;SDS011;14927;51.210;6.838;2023-05-10T03:41:21;9.80;;;6.10;;
27491;SDS011;14927;51.210;6.838;2023-05-10T03:44:06;6.47;;;5.75;;
27491;SDS011;14927;51.210;6.838;2023-05-10T03:46:50;8.70;;;6.47;;
27491;SDS011;14927;51.210;6.838;2023-05-10T03:49:35;7.70;;;5.88;;
27491;SDS011;14927;51.210;6.838;2023-05-10T03:52:20;7.35;;;6.00;;
27491;SDS011;14927;51.210;6.838;2023-05-10T03:55:05;10.98;;;6.85;;
27491;SDS011;14927;51.210;6.838;2023-05-10T03:57:50;9.65;;;6.65;;
27491;SDS011;14927;51.210;6.838;2023-05-10T04:00:34;9.50;;;7.30;;
27491;SDS011;14927;51.210;6.838;2023-05-10T04:03:19;9.75;;;7.07;;
27491;SDS011;14927;51.210;6.838;2023-05-10T04:06:04;7.97;;;7.18;;
27491;SDS011;14927;51.210;6.838;2023-05-10T04:08:48;8.82;;;7.18;;
27491;SDS011;14927;51.210;6.838;2023-05-10T04:11:33;10.73;;;7.85;;
27491;SDS011;14927;51.210;6.838;2023-05-10T04:14:18;9.18;;;7.60;;
27491;SDS011;14927;51.210;6.838;2023-05-10T04:17:02;10.30;;;7.63;;
27491;SDS011;14927;51.210;6.838;2023-05-10T04:19:47;10.38;;;8.30;;
27491;SDS011;14927;51.210;6.838;2023-05-10T04:22:31;11.80;;;8.82;;
27491;SDS011;14927;51.210;6.838;2023-05-10T04:25:16;13.45;;;9.63;;
27491;SDS011;14927;51.210;6.838;2023-05-10T04:28:01;13.30;;;10.18;;
27491;SDS011;14927;51.210;6.838;2023-05-10T04:30:45;16.63;;;12.10;;
27491;SDS011;14927;51.210;6.838;2023-05-10T04:33:30;16.50;;;11.25;;
27491;SDS011;14927;51.210;6.838;2023-05-10T04:36:15;15.05;;;11.70;;
27491;SDS011;14927;51.210;6.838;2023-05-10T04:39:00;16.33;;;12.35;;
27491;SDS011;14927;51.210;6.838;2023-05-10T04:41:49;16.10;;;11.95;;
27491;SDS011;14927;51.210;6.838;2023-05-10T04:44:33;16.35;;;13.02;;
27491;SDS011;14927;51.210;6.838;2023-05-10T04:47:18;19.30;;;13.25;;
27491;SDS011;14927;51.210;6.838;2023-05-10T04:50:03;17.38;;;12.80;;
27491;SDS011;14927;51.210;6.838;2023-05-10T04:52:48;22.15;;;14.60;;
27491;SDS011;14927;51.210;6.838;2023-05-10T04:55:33;21.67;;;14.93;;
27491;SDS011;14927;51.210;6.838;2023-05-10T04:58:17;22.77;;;15.38;;
27491;SDS011;14927;51.210;6.838;2023-05-10T05:01:08;24.00;;;16.08;;
27491;SDS011;14927;51.210;6.838;2023-05-10T05:03:53;26.13;;;16.60;;
27491;SDS011;14927;51.210;6.838;2023-05-10T05:06:38;24.63;;;15.40;;
27491;SDS011;14927;51.210;6.838;2023-05-10T05:09:22;21.83;;;15.23;;
27491;SDS011;14927;51.210;6.838;2023-05-10T05:12:07;22.40;;;15.65;;
27491;SDS011;14927;51.210;6.838;2023-05-10T05:14:51;29.25;;;14.82;;
27491;SDS011;14927;51.210;6.838;2023-05-10T05:17:36;21.83;;;15.15;;
27491;SDS011;14927;51.210;6.838;2023-05-10T05:20:20;25.33;;;15.60;;
27491;SDS011;14927;51.210;6.838;2023-05-10T05:23:06;23.40;;;15.32;;
27491;SDS011;14927;51.210;6.838;2023-05-10T05:25:53;20.65;;;15.27;;
27491;SDS011;14927;51.210;6.838;2023-05-10T05:28:38;21.40;;;14.90;;
27491;SDS011;14927;51.210;6.838;2023-05-10T05:31:23;20.52;;;14.38;;
27491;SDS011;14927;51.210;6.838;2023-05-10T05:34:07;20.83;;;14.88;;
27491;SDS011;14927;51.210;6.838;2023-05-10T05:36:52;20.75;;;13.68;;
27491;SDS011;14927;51.210;6.838;2023-05-10T05:39:37;18.88;;;14.05;;
27491;SDS011;14927;51.210;6.838;2023-05-10T05:42:22;22.15;;;13.25;;
27491;SDS011;14927;51.210;6.838;2023-05-10T05:45:08;17.90;;;12.13;;
27491;SDS011;14927;51.210;6.838;2023-05-10T05:47:56;17.17;;;11.20;;
27491;SDS011;14927;51.210;6.838;2023-05-10T05:50:41;22.77;;;12.20;;
27491;SDS011;14927;51.210;6.838;2023-05-10T05:53:25;16.83;;;11.60;;
27491;SDS011;14927;51.210;6.838;2023-05-10T05:56:10;14.90;;;10.05;;
27491;SDS011;14927;51.210;6.838;2023-05-10T05:58:55;15.85;;;10.75;;
27491;SDS011;14927;51.210;6.838;2023-05-10T06:01:39;16.98;;;10.68;;
27491;SDS011;14927;51.210;6.838;2023-05-10T06:04:24;26.42;;;10.98;;
27491;SDS011;14927;51.210;6.838;2023-05-10T06:07:09;20.80;;;12.30;;
27491;SDS011;14927;51.210;6.838;2023-05-10T06:09:54;14.93;;;9.48;;
27491;SDS011;14927;51.210;6.838;2023-05-10T06:12:38;15.38;;;10.77;;
27491;SDS011;14927;51.210;6.838;2023-05-10T06:15:23;15.85;;;10.75;;
27491;SDS011;14927;51.210;6.838;2023-05-10T06:18:08;16.63;;;10.40;;
27491;SDS011;14927;51.210;6.838;2023-05-10T06:20:52;17.75;;;10.15;;
27491;SDS011;14927;51.210;6.838;2023-05-10T06:23:37;14.43;;;9.75;;
27491;SDS011;14927;51.210;6.838;2023-05-10T06:26:22;16.00;;;10.13;;
27491;SDS011;14927;51.210;6.838;2023-05-10T06:29:06;16.95;;;10.30;;
27491;SDS011;14927;51.210;6.838;2023-05-10T06:31:51;17.35;;;10.02;;
27491;SDS011;14927;51.210;6.838;2023-05-10T06:34:36;16.60;;;9.85;;
27491;SDS011;14927;51.210;6.838;2023-05-10T06:37:21;16.40;;;10.38;;
27491;SDS011;14927;51.210;6.838;2023-05-10T06:40:05;16.98;;;10.50;;
27491;SDS011;14927;51.210;6.838;2023-05-10T06:42:50;16.15;;;10.38;;
27491;SDS011;14927;51.210;6.838;2023-05-10T06:45:35;14.98;;;10.20;;
27491;SDS011;14927;51.210;6.838;2023-05-10T06:48:19;16.23;;;10.27;;
27491;SDS011;14927;51.210;6.838;2023-05-10T06:51:04;15.15;;;10.05;;
27491;SDS011;14927;51.210;6.838;2023-05-10T06:53:48;17.02;;;10.25;;
27491;SDS011;14927;51.210;6.838;2023-05-10T06:56:33;13.32;;;10.15;;
27491;SDS011;14927;51.210;6.838;2023-05-10T06:59:17;16.85;;;9.98;;
27491;SDS011;14927;51.210;6.838;2023-05-10T07:02:03;16.45;;;10.32;;
27491;SDS011;14927;51.210;6.838;2023-05-10T07:04:48;19.58;;;11.07;;
27491;SDS011;14927;51.210;6.838;2023-05-10T07:07:32;21.98;;;11.80;;
27491;SDS011;14927;51.210;6.838;2023-05-10T07:10:17;21.63;;;12.98;;
27491;SDS011;14927;51.210;6.838;2023-05-10T07:13:01;23.23;;;13.40;;
27491;SDS011;14927;51.210;6.838;2023-05-10T07:15:46;24.15;;;13.60;;
27491;SDS011;14927;51.210;6.838;2023-05-10T07:18:31;20.70;;;13.52;;
27491;SDS011;14927;51.210;6.838;2023-05-10T07:21:15;24.30;;;13.13;;
27491;SDS011;14927;51.210;6.838;2023-05-10T07:24:00;22.45;;;13.60;;
27491;SDS011;14927;51.210;6.838;2023-05-10T07:26:44;23.90;;;12.57;;
27491;SDS011;14927;51.210;6.838;2023-05-10T07:29:29;24.15;;;13.25;;
27491;SDS011;14927;51.210;6.838;2023-05-10T07:32:14;22.10;;;12.80;;
27491;SDS011;14927;51.210;6.838;2023-05-10T07:34:59;17.63;;;11.95;;
27491;SDS011;14927;51.210;6.838;2023-05-10T07:37:43;17.08;;;11.32;;
27491;SDS011;14927;51.210;6.838;2023-05-10T07:40:28;20.75;;;10.98;;
27491;SDS011;14927;51.210;6.838;2023-05-10T07:43:13;20.15;;;11.82;;
27491;SDS011;14927;51.210;6.838;2023-05-10T07:45:58;20.85;;;10.77;;
27491;SDS011;14927;51.210;6.838;2023-05-10T07:48:43;16.35;;;10.68;;
27491;SDS011;14927;51.210;6.838;2023-05-10T07:51:28;15.57;;;10.00;;
27491;SDS011;14927;51.210;6.838;2023-05-10T07:54:13;13.98;;;9.48;;
27491;SDS011;14927;51.210;6.838;2023-05-10T07:56:59;12.98;;;9.73;;
27491;SDS011;14927;51.210;6.838;2023-05-10T07:59:44;12.70;;;9.40;;
27491;SDS011;14927;51.210;6.838;2023-05-10T08:02:29;14.57;;;10.55;;
27491;SDS011;14927;51.210;6.838;2023-05-10T08:05:13;18.88;;;11.80;;
27491;SDS011;14927;51.210;6.838;2023-05-10T08:07:58;22.70;;;14.75;;
27491;SDS011;14927;51.210;6.838;2023-05-10T08:10:43;26.08;;;16.35;;
27491;SDS011;14927;51.210;6.838;2023-05-10T08:13:27;29.40;;;17.58;;
27491;SDS011;14927;51.210;6.838;2023-05-10T08:16:12;32.97;;;19.55;;
27491;SDS011;14927;51.210;6.838;2023-05-10T08:18:57;33.10;;;20.73;;
27491;SDS011;14927;51.210;6.838;2023-05-10T08:21:42;34.80;;;20.63;;
27491;SDS011;14927;51.210;6.838;2023-05-10T08:24:26;31.80;;;20.88;;
27491;SDS011;14927;51.210;6.838;2023-05-10T08:27:11;38.17;;;23.00;;
27491;SDS011;14927;51.210;6.838;2023-05-10T08:29:56;40.75;;;24.65;;
27491;SDS011;14927;51.210;6.838;2023-05-10T08:32:41;39.60;;;24.48;;
27491;SDS011;14927;51.210;6.838;2023-05-10T08:35:25;40.53;;;25.85;;
27491;SDS011;14927;51.210;6.838;2023-05-10T08:38:10;40.17;;;25.45;;
27491;SDS011;14927;51.210;6.838;2023-05-10T08:40:55;40.83;;;24.88;;
27491;SDS011;14927;51.210;6.838;2023-05-10T08:43:43;40.53;;;25.45;;
27491;SDS011;14927;51.210;6.838;2023-05-10T08:46:30;39.72;;;24.77;;
27491;SDS011;14927;51.210;6.838;2023-05-10T08:49:19;39.53;;;25.43;;
27491;SDS011;14927;51.210;6.838;2023-05-10T08:52:04;39.10;;;23.75;;
27491;SDS011;14927;51.210;6.838;2023-05-10T08:54:51;34.28;;;21.75;;
27491;SDS011;14927;51.210;6.838;2023-05-10T08:57:35;32.35;;;19.13;;
27491;SDS011;14927;51.210;6.838;2023-05-10T09:00:20;30.80;;;19.67;;
27491;SDS011;14927;51.210;6.838;2023-05-10T09:03:06;31.75;;;20.30;;
27491;SDS011;14927;51.210;6.838;2023-05-10T09:05:51;34.53;;;20.90;;
27491;SDS011;14927;51.210;6.838;2023-05-10T09:08:36;30.83;;;18.63;;
27491;SDS011;14927;51.210;6.838;2023-05-10T09:11:21;32.13;;;19.65;;
27491;SDS011;14927;51.210;6.838;2023-05-10T09:14:06;31.75;;;20.35;;
27491;SDS011;14927;51.210;6.838;2023-05-10T09:16:53;34.63;;;21.42;;
27491;SDS011;14927;51.210;6.838;2023-05-10T09:19:38;30.02;;;17.88;;
27491;SDS011;14927;51.210;6.838;2023-05-10T09:22:23;30.90;;;17.75;;
27491;SDS011;14927;51.210;6.838;2023-05-10T09:25:12;23.23;;;15.95;;
27491;SDS011;14927;51.210;6.838;2023-05-10T09:27:58;25.45;;;15.93;;
27491;SDS011;14927;51.210;6.838;2023-05-10T09:30:44;23.88;;;15.05;;
27491;SDS011;14927;51.210;6.838;2023-05-10T09:33:46;25.42;;;14.50;;
27491;SDS011;14927;51.210;6.838;2023-05-10T09:36:32;26.63;;;15.02;;
27491;SDS011;14927;51.210;6.838;2023-05-10T09:39:17;20.42;;;13.88;;
27491;SDS011;14927;51.210;6.838;2023-05-10T09:42:02;20.02;;;14.32;;
27491;SDS011;14927;51.210;6.838;2023-05-10T09:44:52;18.42;;;12.85;;
27491;SDS011;14927;51.210;6.838;2023-05-10T09:47:37;20.95;;;13.52;;
27491;SDS011;14927;51.210;6.838;2023-05-10T09:50:21;19.70;;;12.70;;
27491;SDS011;14927;51.210;6.838;2023-05-10T09:53:06;21.40;;;12.90;;
27491;SDS011;14927;51.210;6.838;2023-05-10T09:55:51;20.02;;;12.75;;
27491;SDS011;14927;51.210;6.838;2023-05-10T09:58:36;19.45;;;12.38;;
27491;SDS011;14927;51.210;6.838;2023-05-10T10:01:25;19.13;;;11.90;;
27491;SDS011;14927;51.210;6.838;2023-05-10T10:04:10;20.45;;;12.50;;
27491;SDS011;14927;51.210;6.838;2023-05-10T10:07:02;16.65;;;11.13;;
27491;SDS011;14927;51.210;6.838;2023-05-10T10:09:48;16.15;;;10.38;;
27491;SDS011;14927;51.210;6.838;2023-05-10T10:12:32;12.88;;;9.98;;
27491;SDS011;14927;51.210;6.838;2023-05-10T10:15:17;16.92;;;9.98;;
27491;SDS011;14927;51.210;6.838;2023-05-10T10:18:03;16.10;;;10.40;;
27491;SDS011;14927;51.210;6.838;2023-05-10T10:20:49;14.68;;;10.18;;
27491;SDS011;14927;51.210;6.838;2023-05-10T10:23:34;19.83;;;11.13;;
27491;SDS011;14927;51.210;6.838;2023-05-10T10:26:19;17.95;;;12.38;;
27491;SDS011;14927;51.210;6.838;2023-05-10T10:32:09;17.83;;;12.03;;
27491;SDS011;14927;51.210;6.838;2023-05-10T10:35:11;20.58;;;13.52;;
27491;SDS011;14927;51.210;6.838;2023-05-10T10:37:55;17.83;;;11.90;;
27491;SDS011;14927;51.210;6.838;2023-05-10T10:40:43;18.73;;;12.07;;
27491;SDS011;14927;51.210;6.838;2023-05-10T10:43:28;16.88;;;11.07;;
27491;SDS011;14927;51.210;6.838;2023-05-10T10:49:08;16.13;;;11.05;;
27491;SDS011;14927;51.210;6.838;2023-05-10T10:52:12;14.45;;;9.82;;
27491;SDS011;14927;51.210;6.838;2023-05-10T10:57:59;13.32;;;10.00;;
27491;SDS011;14927;51.210;6.838;2023-05-10T11:00:47;13.30;;;8.77;;
27491;SDS011;14927;51.210;6.838;2023-05-10T11:03:32;12.10;;;8.60;;
27491;SDS011;14927;51.210;6.838;2023-05-10T11:06:17;12.80;;;8.98;;
27491;SDS011;14927;51.210;6.838;2023-05-10T11:09:17;16.75;;;10.43;;
27491;SDS011;14927;51.210;6.838;2023-05-10T11:12:07;15.30;;;9.70;;
27491;SDS011;14927;51.210;6.838;2023-05-10T11:14:53;14.65;;;9.75;;
27491;SDS011;14927;51.210;6.838;2023-05-10T11:17:41;17.13;;;11.95;;
27491;SDS011;14927;51.210;6.838;2023-05-10T11:20:27;16.27;;;10.75;;
27491;SDS011;14927;51.210;6.838;2023-05-10T11:23:16;18.30;;;11.40;;
27491;SDS011;14927;51.210;6.838;2023-05-10T11:26:02;20.92;;;12.30;;
27491;SDS011;14927;51.210;6.838;2023-05-10T11:28:47;17.33;;;11.45;;
27491;SDS011;14927;51.210;6.838;2023-05-10T11:31:33;18.98;;;12.95;;
27491;SDS011;14927;51.210;6.838;2023-05-10T11:34:24;18.90;;;12.05;;
27491;SDS011;14927;51.210;6.838;2023-05-10T11:37:13;19.60;;;12.23;;
27491;SDS011;14927;51.210;6.838;2023-05-10T11:39:57;19.58;;;12.98;;
27491;SDS011;14927;51.210;6.838;2023-05-10T11:42:42;18.35;;;13.43;;
27491;SDS011;14927;51.210;6.838;2023-05-10T11:45:27;17.65;;;13.18;;
27491;SDS011;14927;51.210;6.838;2023-05-10T11:48:15;23.83;;;13.98;;
27491;SDS011;14927;51.210;6.838;2023-05-10T11:51:00;19.98;;;12.98;;
27491;SDS011;14927;51.210;6.838;2023-05-10T11:53:45;15.73;;;11.48;;
27491;SDS011;14927;51.210;6.838;2023-05-10T11:56:31;19.23;;;12.90;;
27491;SDS011;14927;51.210;6.838;2023-05-10T11:59:16;14.90;;;10.95;;
27491;SDS011;14927;51.210;6.838;2023-05-10T12:02:01;15.45;;;10.68;;
27491;SDS011;14927;51.210;6.838;2023-05-10T12:04:47;16.15;;;11.57;;
27491;SDS011;14927;51.210;6.838;2023-05-10T12:07:32;15.60;;;11.32;;
27491;SDS011;14927;51.210;6.838;2023-05-10T12:10:17;15.25;;;11.38;;
27491;SDS011;14927;51.210;6.838;2023-05-10T12:13:10;16.10;;;11.63;;
27491;SDS011;14927;51.210;6.838;2023-05-10T12:15:59;13.80;;;11.10;;
27491;SDS011;14927;51.210;6.838;2023-05-10T12:18:47;16.45;;;12.80;;
27491;SDS011;14927;51.210;6.838;2023-05-10T12:21:36;15.98;;;11.23;;
27491;SDS011;14927;51.210;6.838;2023-05-10T12:24:22;16.80;;;11.48;;
27491;SDS011;14927;51.210;6.838;2023-05-10T12:27:09;17.05;;;12.50;;
27491;SDS011;14927;51.210;6.838;2023-05-10T12:29:53;15.55;;;11.65;;
27491;SDS011;14927;51.210;6.838;2023-05-10T12:32:41;16.60;;;12.38;;
27491;SDS011;14927;51.210;6.838;2023-05-10T12:35:31;16.10;;;11.85;;
27491;SDS011;14927;51.210;6.838;2023-05-10T12:41:21;18.55;;;12.07;;
27491;SDS011;14927;51.210;6.838;2023-05-10T12:44:06;18.50;;;13.23;;
27491;SDS011;14927;51.210;6.838;2023-05-10T12:46:50;18.25;;;13.43;;
27491;SDS011;14927;51.210;6.838;2023-05-10T12:49:35;14.55;;;12.27;;
27491;SDS011;14927;51.210;6.838;2023-05-10T12:52:20;18.92;;;12.75;;
27491;SDS011;14927;51.210;6.838;2023-05-10T12:55:04;21.45;;;13.85;;
27491;SDS011;14927;51.210;6.838;2023-05-10T12:57:49;19.55;;;13.75;;
27491;SDS011;14927;51.210;6.838;2023-05-10T13:00:34;23.25;;;14.45;;
27491;SDS011;14927;51.210;6.838;2023-05-10T13:03:19;18.90;;;14.63;;
27491;SDS011;14927;51.210;6.838;2023-05-10T13:06:03;20.27;;;15.55;;
27491;SDS011;14927;51.210;6.838;2023-05-10T13:08:48;19.45;;;15.52;;
27491;SDS011;14927;51.210;6.838;2023-05-10T13:11:33;21.20;;;15.85;;
27491;SDS011;14927;51.210;6.838;2023-05-10T13:14:18;20.33;;;15.07;;
27491;SDS011;14927;51.210;6.838;2023-05-10T13:17:03;17.27;;;13.82;;
27491;SDS011;14927;51.210;6.838;2023-05-10T13:19:48;17.55;;;13.70;;
27491;SDS011;14927;51.210;6.838;2023-05-10T13:22:33;19.80;;;13.27;;
27491;SDS011;14927;51.210;6.838;2023-05-10T13:25:18;18.80;;;13.88;;
27491;SDS011;14927;51.210;6.838;2023-05-10T13:28:03;17.02;;;13.52;;
27491;SDS011;14927;51.210;6.838;2023-05-10T13:30:47;18.33;;;15.15;;
27491;SDS011;14927;51.210;6.838;2023-05-10T13:33:32;18.17;;;14.98;;
27491;SDS011;14927;51.210;6.838;2023-05-10T13:36:17;18.77;;;15.02;;
27491;SDS011;14927;51.210;6.838;2023-05-10T13:39:02;18.58;;;14.50;;
27491;SDS011;14927;51.210;6.838;2023-05-10T13:41:48;19.00;;;13.90;;
27491;SDS011;14927;51.210;6.838;2023-05-10T13:44:33;16.60;;;13.20;;
27491;SDS011;14927;51.210;6.838;2023-05-10T13:47:18;12.95;;;10.50;;
27491;SDS011;14927;51.210;6.838;2023-05-10T13:50:02;12.77;;;9.88;;
27491;SDS011;14927;51.210;6.838;2023-05-10T13:52:47;11.30;;;9.60;;
27491;SDS011;14927;51.210;6.838;2023-05-10T13:55:32;11.05;;;8.95;;
27491;SDS011;14927;51.210;6.838;2023-05-10T13:58:17;10.75;;;8.80;;
27491;SDS011;14927;51.210;6.838;2023-05-10T14:01:01;11.05;;;8.70;;
27491;SDS011;14927;51.210;6.838;2023-05-10T14:03:46;11.43;;;9.27;;
27491;SDS011;14927;51.210;6.838;2023-05-10T14:06:31;11.13;;;9.93;;
27491;SDS011;14927;51.210;6.838;2023-05-10T14:09:17;13.40;;;10.27;;
27491;SDS011;14927;51.210;6.838;2023-05-10T14:12:02;11.95;;;9.23;;
27491;SDS011;14927;51.210;6.838;2023-05-10T14:14:47;14.70;;;9.93;;
27491;SDS011;14927;51.210;6.838;2023-05-10T14:17:31;10.85;;;9.27;;
27491;SDS011;14927;51.210;6.838;2023-05-10T14:20:16;14.65;;;10.27;;
27491;SDS011;14927;51.210;6.838;2023-05-10T14:23:00;12.60;;;9.65;;
27491;SDS011;14927;51.210;6.838;2023-05-10T14:25:45;11.15;;;9.35;;
27491;SDS011;14927;51.210;6.838;2023-05-10T14:28:30;12.48;;;9.70;;
27491;SDS011;14927;51.210;6.838;2023-05-10T14:31:16;12.10;;;9.98;;
27491;SDS011;14927;51.210;6.838;2023-05-10T14:34:02;14.02;;;10.55;;
27491;SDS011;14927;51.210;6.838;2023-05-10T14:36:47;13.43;;;10.30;;
27491;SDS011;14927;51.210;6.838;2023-05-10T14:39:32;13.90;;;10.13;;
27491;SDS011;14927;51.210;6.838;2023-05-10T14:42:16;13.15;;;10.63;;
27491;SDS011;14927;51.210;6.838;2023-05-10T14:45:01;12.32;;;9.77;;
27491;SDS011;14927;51.210;6.838;2023-05-10T14:47:47;11.93;;;9.20;;
27491;SDS011;14927;51.210;6.838;2023-05-10T14:50:33;12.07;;;9.90;;
27491;SDS011;14927;51.210;6.838;2023-05-10T14:53:18;13.45;;;9.32;;
27491;SDS011;14927;51.210;6.838;2023-05-10T14:56:02;11.50;;;8.77;;
27491;SDS011;14927;51.210;6.838;2023-05-10T14:58:49;10.65;;;9.07;;
27491;SDS011;14927;51.210;6.838;2023-05-10T15:01:33;12.00;;;8.63;;
27491;SDS011;14927;51.210;6.838;2023-05-10T15:04:20;16.35;;;9.98;;
27491;SDS011;14927;51.210;6.838;2023-05-10T15:07:05;11.85;;;9.05;;
27491;SDS011;14927;51.210;6.838;2023-05-10T15:09:50;12.13;;;8.82;;
27491;SDS011;14927;51.210;6.838;2023-05-10T15:12:38;16.45;;;9.57;;
27491;SDS011;14927;51.210;6.838;2023-05-10T15:15:22;15.20;;;9.98;;
27491;SDS011;14927;51.210;6.838;2023-05-10T15:18:08;13.75;;;9.48;;
27491;SDS011;14927;51.210;6.838;2023-05-10T15:20:53;20.65;;;10.13;;
27491;SDS011;14927;51.210;6.838;2023-05-10T15:23:38;12.30;;;8.98;;
27491;SDS011;14927;51.210;6.838;2023-05-10T15:26:23;10.15;;;8.43;;
27491;SDS011;14927;51.210;6.838;2023-05-10T15:29:10;13.60;;;8.65;;
27491;SDS011;14927;51.210;6.838;2023-05-10T15:31:54;11.15;;;8.38;;
27491;SDS011;14927;51.210;6.838;2023-05-10T15:34:39;10.27;;;8.40;;
27491;SDS011;14927;51.210;6.838;2023-05-10T15:37:24;11.48;;;7.28;;
27491;SDS011;14927;51.210;6.838;2023-05-10T15:40:09;9.27;;;7.03;;
27491;SDS011;14927;51.210;6.838;2023-05-10T15:42:54;8.85;;;6.43;;
27491;SDS011;14927;51.210;6.838;2023-05-10T15:45:48;7.32;;;6.45;;
27491;SDS011;14927;51.210;6.838;2023-05-10T15:48:33;8.38;;;5.35;;
27491;SDS011;14927;51.210;6.838;2023-05-10T15:51:20;7.30;;;5.45;;
27491;SDS011;14927;51.210;6.838;2023-05-10T15:54:05;10.77;;;6.35;;
27491;SDS011;14927;51.210;6.838;2023-05-10T15:56:53;6.93;;;5.22;;
27491;SDS011;14927;51.210;6.838;2023-05-10T15:59:40;11.77;;;7.55;;
27491;SDS011;14927;51.210;6.838;2023-05-10T16:02:25;10.80;;;6.07;;
27491;SDS011;14927;51.210;6.838;2023-05-10T16:05:10;7.95;;;6.45;;
27491;SDS011;14927;51.210;6.838;2023-05-10T16:07:55;7.32;;;5.97;;
27491;SDS011;14927;51.210;6.838;2023-05-10T16:10:39;9.13;;;6.55;;
27491;SDS011;14927;51.210;6.838;2023-05-10T16:13:24;7.93;;;6.10;;
27491;SDS011;14927;51.210;6.838;2023-05-10T16:16:09;8.40;;;6.53;;
27491;SDS011;14927;51.210;6.838;2023-05-10T16:18:57;7.78;;;5.82;;
27491;SDS011;14927;51.210;6.838;2023-05-10T16:21:44;7.43;;;6.00;;
27491;SDS011;14927;51.210;6.838;2023-05-10T16:24:31;9.40;;;6.55;;
27491;SDS011;14927;51.210;6.838;2023-05-10T16:27:16;10.32;;;6.10;;
27491;SDS011;14927;51.210;6.838;2023-05-10T16:30:01;8.27;;;6.30;;
27491;SDS011;14927;51.210;6.838;2023-05-10T16:32:45;5.97;;;4.75;;
27491;SDS011;14927;51.210;6.838;2023-05-10T16:35:33;8.45;;;4.22;;
27491;SDS011;14927;51.210;6.838;2023-05-10T16:38:17;4.25;;;3.40;;
27491;SDS011;14927;51.210;6.838;2023-05-10T16:41:04;4.68;;;3.53;;
27491;SDS011;14927;51.210;6.838;2023-05-10T16:43:49;3.20;;;2.50;;
27491;SDS011;14927;51.210;6.838;2023-05-10T16:46:34;2.85;;;2.55;;
27491;SDS011;14927;51.210;6.838;2023-05-10T16:49:21;2.53;;;1.92;;
27491;SDS011;14927;51.210;6.838;2023-05-10T16:52:06;2.08;;;1.45;;
27491;SDS011;14927;51.210;6.838;2023-05-10T16:54:51;1.70;;;1.55;;